createdAt,value
2022-12-25T00:01:32.314Z,8.2
2022-12-25T00:06:51.459Z,8.2
2022-12-25T00:12:29.217Z,8.1
2022-12-25T00:18:18.639Z,8.1
2022-12-25T00:23:53.387Z,8.1
2022-12-25T00:28:59.244Z,8
2022-12-25T00:34:32.371Z,8
2022-12-25T00:40:13.000Z,8
2022-12-25T00:45:48.711Z,8
2022-12-25T00:51:28.030Z,8
2022-12-25T00:57:00.562Z,8
2022-12-25T01:02:21.330Z,8
2022-12-25T01:08:02.509Z,8
2022-12-25T01:13:40.914Z,8
2022-12-25T01:18:56.554Z,8.1
2022-12-25T01:24:19.071Z,8.1
2022-12-25T01:30:02.587Z,8.1
2022-12-25T01:35:49.726Z,8.1
2022-12-25T01:41:19.366Z,8.1
2022-12-25T01:46:42.686Z,8.1
2022-12-25T01:52:02.353Z,8
2022-12-25T01:57:43.357Z,8
2022-12-25T02:03:10.006Z,8
2022-12-25T02:09:00.253Z,7.9
2022-12-25T02:14:26.051Z,7.8
2022-12-25T02:20:01.972Z,7.5
2022-12-25T02:25:24.823Z,7.5
2022-12-25T02:30:54.062Z,7.7
2022-12-25T02:36:36.872Z,7.7
2022-12-25T02:42:08.222Z,7.8
2022-12-25T02:47:34.425Z,7.8
2022-12-25T02:52:54.947Z,7.9
2022-12-25T02:58:52.207Z,7.9
2022-12-25T03:04:04.592Z,7.9
2022-12-25T03:09:46.578Z,7.9
2022-12-25T03:15:17.834Z,7.9
2022-12-25T03:20:33.345Z,7.9
2022-12-25T03:26:15.224Z,7.9
2022-12-25T03:31:38.097Z,7.8
2022-12-25T03:37:11.330Z,7.8
2022-12-25T03:42:56.522Z,7.8
2022-12-25T03:48:39.342Z,7.8
2022-12-25T03:53:51.429Z,7.8
2022-12-25T03:59:25.114Z,7.8
2022-12-25T04:04:50.348Z,7.9
2022-12-25T04:10:31.692Z,7.8
2022-12-25T04:16:09.707Z,7.8
2022-12-25T04:21:32.385Z,7.8
2022-12-25T04:27:13.004Z,7.8
2022-12-25T04:32:32.609Z,7.7
2022-12-25T04:38:15.148Z,7.7
2022-12-25T04:43:54.071Z,7.7
2022-12-25T04:49:33.678Z,7.8
2022-12-25T04:54:54.083Z,7.8
2022-12-25T05:00:21.512Z,7.8
2022-12-25T05:05:47.564Z,7.8
2022-12-25T05:11:20.219Z,7.7
2022-12-25T05:16:48.216Z,7.7
2022-12-25T05:22:32.159Z,7.7
2022-12-25T05:28:01.112Z,7.7
2022-12-25T05:33:25.652Z,7.7
2022-12-25T05:39:20.318Z,7.7
2022-12-25T05:44:44.683Z,7.7
2022-12-25T05:49:57.702Z,7.7
2022-12-25T05:55:34.866Z,7.7
2022-12-25T06:01:24.793Z,7.7
2022-12-25T06:06:52.608Z,7.8
2022-12-25T06:12:07.478Z,7.8
2022-12-25T06:17:44.266Z,7.8
2022-12-25T06:23:29.294Z,7.9
2022-12-25T06:28:58.562Z,7.8
2022-12-25T06:34:21.792Z,7.9
2022-12-25T06:39:51.866Z,7.9
2022-12-25T06:45:38.086Z,7.9
2022-12-25T06:50:59.137Z,7.9
2022-12-25T06:56:32.242Z,7.9
2022-12-25T07:02:12.993Z,7.9
2022-12-25T07:07:38.744Z,7.9
2022-12-25T07:13:17.797Z,7.9
2022-12-25T07:18:48.870Z,7.9
2022-12-25T07:24:21.097Z,7.9
2022-12-25T07:29:38.899Z,7.9
2022-12-25T07:35:27.877Z,7.9
2022-12-25T07:41:02.235Z,7.9
2022-12-25T07:46:23.500Z,7.9
2022-12-25T07:51:59.146Z,7.9
2022-12-25T07:57:34.394Z,8
2022-12-25T08:03:03.522Z,7.9
2022-12-25T08:08:21.681Z,7.9
2022-12-25T08:14:11.240Z,8
2022-12-25T08:19:50.512Z,8.1
2022-12-25T08:24:59.080Z,8.1
2022-12-25T08:30:38.342Z,8.1
2022-12-25T08:36:20.183Z,8.2
2022-12-25T08:41:55.141Z,8.3
2022-12-25T08:47:25.664Z,8.3
2022-12-25T08:52:54.224Z,8.3
2022-12-25T08:58:20.245Z,8.3
2022-12-25T09:04:02.280Z,8.4
2022-12-25T09:09:21.392Z,8.4
2022-12-25T09:14:59.733Z,8.5
2022-12-25T09:20:34.289Z,8.6
2022-12-25T09:26:05.166Z,8.8
2022-12-25T09:31:42.981Z,8.7
2022-12-25T09:37:14.052Z,8.7
2022-12-25T09:42:52.932Z,8.7
2022-12-25T09:48:01.482Z,8.7
2022-12-25T09:53:33.163Z,8.9
2022-12-25T09:59:22.681Z,8.9
2022-12-25T10:04:47.469Z,9.1
2022-12-25T10:10:30.968Z,9.1
2022-12-25T10:15:45.959Z,9.2
2022-12-25T10:21:29.009Z,9.1
2022-12-25T10:27:15.084Z,9.1
2022-12-25T10:32:20.309Z,9.2
2022-12-25T10:37:56.255Z,9.3
2022-12-25T10:43:38.318Z,9.4
2022-12-25T10:48:56.510Z,9.4
2022-12-25T10:54:44.381Z,9.4
2022-12-25T11:00:17.857Z,9.4
2022-12-25T11:05:54.400Z,9.4
2022-12-25T11:11:26.473Z,9.4
2022-12-25T11:16:47.129Z,9.4
2022-12-25T11:22:28.379Z,9.6
2022-12-25T11:27:53.660Z,9.5
2022-12-25T11:33:29.944Z,9.5
2022-12-25T11:38:57.576Z,9.6
2022-12-25T11:44:49.264Z,9.5
2022-12-25T11:50:17.491Z,9.6
2022-12-25T11:55:55.092Z,9.5
2022-12-25T12:01:08.155Z,9.7
2022-12-25T12:06:55.790Z,9.7
2022-12-25T12:12:10.991Z,9.7
2022-12-25T12:18:01.282Z,9.7
2022-12-25T12:23:38.495Z,9.8
2022-12-25T12:28:49.945Z,9.7
2022-12-25T12:34:28.018Z,9.6
2022-12-25T12:39:51.537Z,9.7
2022-12-25T12:45:23.586Z,9.7
2022-12-25T12:51:02.580Z,9.6
2022-12-25T12:56:43.326Z,9.6
2022-12-25T13:02:16.620Z,9.7
2022-12-25T13:07:40.270Z,9.6
2022-12-25T13:13:17.588Z,9.5
2022-12-25T13:18:44.586Z,9.7
2022-12-25T13:24:30.009Z,9.7
2022-12-25T13:30:01.459Z,9.7
2022-12-25T13:35:14.490Z,9.8
2022-12-25T13:41:04.773Z,9.9
2022-12-25T13:46:23.014Z,9.9
2022-12-25T13:51:59.493Z,9.9
2022-12-25T13:57:23.022Z,9.9
2022-12-25T14:02:59.963Z,9.8
2022-12-25T14:08:50.796Z,9.8
2022-12-25T14:14:22.847Z,9.9
2022-12-25T14:19:34.925Z,9.9
2022-12-25T14:25:10.071Z,9.9
2022-12-25T14:30:46.788Z,9.9
2022-12-25T14:36:27.241Z,9.8
2022-12-25T14:41:46.871Z,9.7
2022-12-25T14:47:34.326Z,9.7
2022-12-25T14:53:14.989Z,9.6
2022-12-25T14:58:28.839Z,9.5
2022-12-25T15:04:09.087Z,9.4
2022-12-25T15:09:31.863Z,9.2
2022-12-25T15:15:10.717Z,9.2
2022-12-25T15:20:54.131Z,9.1
2022-12-25T15:26:27.423Z,9
2022-12-25T15:32:00.254Z,8.8
2022-12-25T15:37:27.879Z,8.8
2022-12-25T15:42:49.410Z,8.8
2022-12-25T15:48:16.482Z,8.8
2022-12-25T15:54:03.701Z,8.8
2022-12-25T15:59:31.892Z,8.7
2022-12-25T16:04:47.835Z,8.8
2022-12-25T16:10:47.070Z,8.8
2022-12-25T16:16:01.212Z,8.7
2022-12-25T16:21:35.882Z,8.6
2022-12-25T16:27:09.762Z,8.5
2022-12-25T16:32:29.997Z,8.5
2022-12-25T16:38:04.758Z,8.5
2022-12-25T16:43:53.413Z,8.5
2022-12-25T16:49:13.920Z,8.6
2022-12-25T16:54:53.472Z,8.6
2022-12-25T17:00:09.069Z,8.6
2022-12-25T17:06:02.584Z,8.5
2022-12-25T17:11:13.179Z,8.4
2022-12-25T17:16:54.228Z,8.4
2022-12-25T17:22:41.331Z,8.4
2022-12-25T17:28:02.526Z,8.4
2022-12-25T17:33:46.196Z,8.5
2022-12-25T17:38:55.097Z,8.5
2022-12-25T17:44:25.790Z,8.5
2022-12-25T17:50:14.708Z,8.5
2022-12-25T17:55:46.179Z,8.5
2022-12-25T18:01:22.395Z,8.6
2022-12-25T18:06:59.527Z,8.6
2022-12-25T18:12:26.179Z,8.5
2022-12-25T18:18:04.779Z,8.6
2022-12-25T18:23:22.812Z,8.5
2022-12-25T18:29:09.206Z,8.4
2022-12-25T18:34:36.791Z,8.3
2022-12-25T18:40:02.448Z,8.2
2022-12-25T18:45:41.771Z,8.2
2022-12-25T18:51:04.287Z,8.2
2022-12-25T18:56:53.324Z,8.2
2022-12-25T19:02:14.820Z,8.2
2022-12-25T19:07:48.195Z,8.2
2022-12-25T19:13:15.689Z,8.2
2022-12-25T19:18:53.871Z,8.2
2022-12-25T19:24:29.827Z,8.1
2022-12-25T19:29:51.481Z,8.1
2022-12-25T19:35:25.811Z,8.1
2022-12-25T19:41:08.462Z,8
2022-12-25T19:46:34.301Z,8
2022-12-25T19:52:09.777Z,8
2022-12-25T19:57:44.878Z,7.9
2022-12-25T20:03:10.817Z,7.8
2022-12-25T20:08:27.114Z,7.7
2022-12-25T20:14:07.648Z,7.9
2022-12-25T20:19:44.625Z,7.9
2022-12-25T20:25:21.840Z,7.9
2022-12-25T20:30:34.940Z,7.9
2022-12-25T20:36:11.169Z,7.9
2022-12-25T20:41:47.647Z,7.9
2022-12-25T20:47:12.724Z,7.8
2022-12-25T20:53:04.459Z,7.8
2022-12-25T20:58:10.027Z,7.7
2022-12-25T21:04:02.184Z,7.7
2022-12-25T21:09:37.759Z,7.7
2022-12-25T21:14:54.603Z,7.7
2022-12-25T21:20:17.951Z,7.6
2022-12-25T21:26:18.515Z,7.6
2022-12-25T21:31:49.463Z,7.6
2022-12-25T21:37:12.056Z,7.6
2022-12-25T21:42:37.288Z,7.6
2022-12-25T21:48:02.830Z,7.6
2022-12-25T21:53:57.832Z,7.6
2022-12-25T21:59:29.700Z,7.6
2022-12-25T22:04:36.238Z,7.6
2022-12-25T22:15:54.535Z,7.7
2022-12-25T22:21:12.811Z,7.8
2022-12-25T22:26:46.227Z,7.8
2022-12-25T22:32:41.735Z,7.8
2022-12-25T22:38:10.901Z,7.8
2022-12-25T22:43:21.234Z,7.8
2022-12-25T22:49:03.962Z,7.7
2022-12-25T22:54:27.860Z,7.6
2022-12-25T23:00:04.194Z,7.5
2022-12-25T23:05:36.855Z,7.5
2022-12-25T23:11:19.011Z,7.5
2022-12-25T23:16:48.862Z,7.4
2022-12-25T23:22:15.124Z,7.4
2022-12-25T23:27:55.863Z,7.5
2022-12-25T23:33:33.734Z,7.5
2022-12-25T23:38:51.898Z,7.5
2022-12-25T23:44:31.822Z,7.5
2022-12-25T23:49:49.888Z,7.4
2022-12-25T23:55:39.854Z,7.4
